sensor_id;sensor_type;location;lat;lon;timestamp;pressure;altitude;pressure_sealevel;temperature;humidity
6974;BME280;3527;52.376;8.990;2023-04-16T20:04:33;101952.47;;;18.33;80.50
6974;BME280;3527;52.376;8.990;2023-04-16T20:12:04;101899.19;;;12.98;84.97
6974;BME280;3527;52.376;8.990;2023-04-16T20:14:32;101940.69;;;11.84;89.50
6974;BME280;3527;52.376;8.990;2023-04-16T20:16:58;101996.41;;;11.20;94.12
6974;BME280;3527;52.376;8.990;2023-04-16T20:19:27;102019.25;;;10.89;98.06
6974;BME280;3527;52.376;8.990;2023-04-16T20:21:59;102039.50;;;10.23;100.00
6974;BME280;3527;52.376;8.990;2023-04-16T20:24:26;102066.31;;;10.07;100.00
6974;BME280;3527;52.376;8.990;2023-04-16T20:26:56;102077.41;;;9.86;100.00
6974;BME280;3527;52.376;8.990;2023-04-16T20:29:23;102080.06;;;9.74;100.00
6974;BME280;3527;52.376;8.990;2023-04-16T20:31:50;102095.03;;;9.69;100.00
6974;BME280;3527;52.376;8.990;2023-04-16T20:34:19;102093.59;;;9.54;100.00
6974;BME280;3527;52.376;8.990;2023-04-16T20:36:46;102105.06;;;9.62;100.00
6974;BME280;3527;52.376;8.990;2023-04-16T20:39:14;102104.25;;;9.52;100.00
6974;BME280;3527;52.376;8.990;2023-04-16T20:41:46;102107.09;;;9.35;100.00
6974;BME280;3527;52.376;8.990;2023-04-16T20:44:23;102093.00;;;9.23;100.00
6974;BME280;3527;52.376;8.990;2023-04-16T20:46:52;102094.75;;;9.45;100.00
6974;BME280;3527;52.376;8.990;2023-04-16T20:49:23;102085.09;;;9.42;100.00
6974;BME280;3527;52.376;8.990;2023-04-16T20:51:50;102094.63;;;9.24;100.00
6974;BME280;3527;52.376;8.990;2023-04-16T20:54:17;102088.75;;;9.17;100.00
6974;BME280;3527;52.376;8.990;2023-04-16T20:56:44;102095.63;;;9.11;100.00
6974;BME280;3527;52.376;8.990;2023-04-16T20:59:12;102097.28;;;9.12;100.00
6974;BME280;3527;52.376;8.990;2023-04-16T21:01:39;102096.63;;;9.06;100.00
6974;BME280;3527;52.376;8.990;2023-04-16T21:04:06;102089.56;;;9.00;100.00
6974;BME280;3527;52.376;8.990;2023-04-16T21:06:38;102088.75;;;8.99;100.00
6974;BME280;3527;52.376;8.990;2023-04-16T21:09:08;102092.84;;;9.11;100.00
6974;BME280;3527;52.376;8.990;2023-04-16T21:11:36;102089.56;;;9.00;100.00
6974;BME280;3527;52.376;8.990;2023-04-16T21:14:03;102087.94;;;8.90;100.00
6974;BME280;3527;52.376;8.990;2023-04-16T21:16:31;102087.63;;;8.83;100.00
6974;BME280;3527;52.376;8.990;2023-04-16T21:18:59;102085.00;;;8.78;100.00
6974;BME280;3527;52.376;8.990;2023-04-16T21:21:27;102097.91;;;8.74;100.00
6974;BME280;3527;52.376;8.990;2023-04-16T21:23:54;102094.16;;;8.70;100.00
6974;BME280;3527;52.376;8.990;2023-04-16T21:26:20;102102.50;;;8.70;100.00
6974;BME280;3527;52.376;8.990;2023-04-16T21:28:48;102098.56;;;8.71;100.00
6974;BME280;3527;52.376;8.990;2023-04-16T21:31:15;102092.00;;;8.67;100.00
6974;BME280;3527;52.376;8.990;2023-04-16T21:33:42;102099.38;;;8.63;100.00
6974;BME280;3527;52.376;8.990;2023-04-16T21:36:09;102093.31;;;8.61;100.00
6974;BME280;3527;52.376;8.990;2023-04-16T21:38:37;102090.06;;;8.59;100.00
6974;BME280;3527;52.376;8.990;2023-04-16T21:41:04;102095.28;;;8.60;100.00
6974;BME280;3527;52.376;8.990;2023-04-16T21:43:30;102091.19;;;8.58;100.00
6974;BME280;3527;52.376;8.990;2023-04-16T21:45:58;102094.16;;;8.61;100.00
6974;BME280;3527;52.376;8.990;2023-04-16T21:48:25;102097.25;;;8.60;100.00
6974;BME280;3527;52.376;8.990;2023-04-16T21:50:55;102100.38;;;8.58;100.00
6974;BME280;3527;52.376;8.990;2023-04-16T21:53:24;102097.25;;;8.60;100.00
6974;BME280;3527;52.376;8.990;2023-04-16T21:55:53;102093.97;;;8.58;100.00
6974;BME280;3527;52.376;8.990;2023-04-16T21:58:20;102098.91;;;8.61;100.00
6974;BME280;3527;52.376;8.990;2023-04-16T22:00:46;102096.09;;;8.61;100.00
6974;BME280;3527;52.376;8.990;2023-04-16T22:03:13;102100.38;;;8.67;100.00
6974;BME280;3527;52.376;8.990;2023-04-16T22:05:43;102102.66;;;8.74;100.00
6974;BME280;3527;52.376;8.990;2023-04-16T22:08:10;102091.88;;;8.81;100.00
6974;BME280;3527;52.376;8.990;2023-04-16T22:10:50;102102.50;;;8.70;100.00
6974;BME280;3527;52.376;8.990;2023-04-16T22:13:17;102087.59;;;8.66;100.00
6974;BME280;3527;52.376;8.990;2023-04-16T22:15:43;102095.28;;;8.69;100.00
6974;BME280;3527;52.376;8.990;2023-04-16T22:18:10;102094.47;;;8.68;100.00
6974;BME280;3527;52.376;8.990;2023-04-16T22:20:37;102099.22;;;8.68;100.00
6974;BME280;3527;52.376;8.990;2023-04-16T22:23:07;102100.69;;;8.65;100.00
6974;BME280;3527;52.376;8.990;2023-04-16T22:25:34;102101.84;;;8.73;100.00
6974;BME280;3527;52.376;8.990;2023-04-16T22:28:01;102092.50;;;8.69;100.00
6974;BME280;3527;52.376;8.990;2023-04-16T22:30:28;102093.31;;;8.61;100.00
6974;BME280;3527;52.376;8.990;2023-04-16T22:32:54;102095.63;;;8.59;100.00
6974;BME280;3527;52.376;8.990;2023-04-16T22:35:21;102102.50;;;8.61;100.00
6974;BME280;3527;52.376;8.990;2023-04-16T22:37:48;102098.56;;;8.71;100.00
6974;BME280;3527;52.376;8.990;2023-04-16T22:40:15;102101.19;;;8.76;100.00
6974;BME280;3527;52.376;8.990;2023-04-16T22:42:42;102096.59;;;8.63;100.00
6974;BME280;3527;52.376;8.990;2023-04-16T22:45:09;102104.47;;;8.61;100.00
6974;BME280;3527;52.376;8.990;2023-04-16T22:47:35;102105.13;;;8.58;100.00
6974;BME280;3527;52.376;8.990;2023-04-16T22:50:03;102101.69;;;8.70;100.00
6974;BME280;3527;52.376;8.990;2023-04-16T22:52:30;102102.66;;;8.65;100.00
6974;BME280;3527;52.376;8.990;2023-04-16T22:54:57;102104.97;;;8.72;100.00
6974;BME280;3527;52.376;8.990;2023-04-16T22:57:24;102100.53;;;8.71;100.00
6974;BME280;3527;52.376;8.990;2023-04-16T22:59:51;102103.47;;;8.74;100.00
6974;BME280;3527;52.376;8.990;2023-04-16T23:02:19;102095.47;;;8.64;100.00
6974;BME280;3527;52.376;8.990;2023-04-16T23:04:47;102104.13;;;8.71;100.00
6974;BME280;3527;52.376;8.990;2023-04-16T23:07:14;102100.38;;;8.76;100.00
6974;BME280;3527;52.376;8.990;2023-04-16T23:09:41;102097.59;;;8.67;100.00
6974;BME280;3527;52.376;8.990;2023-04-16T23:12:08;102098.25;;;8.73;100.00
6974;BME280;3527;52.376;8.990;2023-04-16T23:14:35;102100.69;;;8.65;100.00
6974;BME280;3527;52.376;8.990;2023-04-16T23:17:02;102095.13;;;8.65;100.00
6974;BME280;3527;52.376;8.990;2023-04-16T23:19:29;102094.63;;;8.55;100.00
6974;BME280;3527;52.376;8.990;2023-04-16T23:21:57;102103.16;;;8.50;100.00
6974;BME280;3527;52.376;8.990;2023-04-16T23:24:24;102102.78;;;8.43;100.00
6974;BME280;3527;52.376;8.990;2023-04-16T23:26:50;102105.06;;;8.41;100.00
6974;BME280;3527;52.376;8.990;2023-04-16T23:29:18;102101.63;;;8.44;100.00
6974;BME280;3527;52.376;8.990;2023-04-16T23:31:46;102105.41;;;8.48;100.00
6974;BME280;3527;52.376;8.990;2023-04-16T23:34:13;102105.06;;;8.41;100.00
6974;BME280;3527;52.376;8.990;2023-04-16T23:36:40;102116.84;;;8.38;100.00
6974;BME280;3527;52.376;8.990;2023-04-16T23:39:06;102104.09;;;8.36;100.00
6974;BME280;3527;52.376;8.990;2023-04-16T23:41:33;102104.09;;;8.36;100.00
6974;BME280;3527;52.376;8.990;2023-04-16T23:44:00;102110.63;;;8.41;100.00
6974;BME280;3527;52.376;8.990;2023-04-16T23:46:27;102113.25;;;8.46;100.00
6974;BME280;3527;52.376;8.990;2023-04-16T23:48:53;102117.69;;;8.47;100.00
6974;BME280;3527;52.376;8.990;2023-04-16T23:51:20;102103.31;;;8.53;100.00
6974;BME280;3527;52.376;8.990;2023-04-16T23:53:47;102108.06;;;8.53;100.00
6974;BME280;3527;52.376;8.990;2023-04-16T23:56:14;102117.25;;;8.62;100.00
6974;BME280;3527;52.376;8.990;2023-04-16T23:58:41;102108.72;;;8.58;100.00
